Tiempo atmosférico en la estación meteorológica de Moguer, El Arenosillo, Huelva (41 m.)



Fecha
DESCASC
Temp. máxima en grados centígrados (hora)
DESCASC
Temp. mínima en grados centígrados (hora)
DESCASC
Temp. media en grados centígrados
DESCASC
Racha de viento máxima en m/sg (hora)
DESCASC
Velocidad máxima media en intervalos de 10 minutos(hora)
DESCASC
Precipitaciones diarias en mm
DESCASC
Precipitaciones de 00:00 a 06:00 en mm
DESCASC
Precipitaciones de 06:00 a 12:00 en mm
DESCASC
Precipitaciones de 12:00 a 18:00 en mm
DESCASC
Precipitaciones de 18:00 a 24:00 en mm
DESCASC
17-10-2019 21.8 (16:20) 9.8 (07:40) 15.8 6.67 (20:00) 4.72 (14:30) 0 0 0 0 0
16-10-2019 21.9 (15:20) 8.8 (08:20) 15.3 6.67 (18:20) 3.61 (18:50) 0 0 0 0 0
15-10-2019 21.3 (13:40) 9.3 (08:30) 15.3 6.67 (18:50) 4.44 (17:10) 0 0 0 0 0
14-10-2019 21.6 (13:30) 14.9 (23:59) 18.3 19.44 (05:20) 7.78 (05:30) 1.4 1.4 0 0 0
13-10-2019 23.9 (13:40) 13.1 (00:00) 18.5 5.83 (21:20) 3.33 (14:40) 0 0 0 0 0
12-10-2019 24.9 (13:20) 17.6 (00:00) 21.3 7.78 (17:30) 5 (17:20) 0 0 0 0 0
11-10-2019 26.4 (14:00) 17.8 (00:00) 22.1 5 (12:50) 3.06 (10:00) 0 0 0 0 0
10-10-2019 26.4 (15:10) 14.3 (00:00) 20.3 4.72 (20:50) 3.06 (03:00) 0 0 0 0 0
09-10-2019 26.1 (16:50) 14.7 (00:00) 20.4 4.72 (13:00) 2.5 (13:00) 0 0 0 0 0
08-10-2019 26.7 (15:20) 14.6 (00:00) 20.7 7.22 (16:50) 4.44 (16:50) 0 0 0 0 0
07-10-2019 26.4 (15:10) 14.5 (00:00) 20.4 5.56 (18:40) 3.61 (03:00) 0 0 0 0 0
06-10-2019 24.1 (11:40) 13.8 (00:00) 19 6.67 (02:00) 4.44 (04:10) 0 0 0 0 0
05-10-2019 23.4 (16:10) 14.4 (00:00) 18.9 7.22 (05:00) 3.89 (14:50) 0 0 0 0 0
04-10-2019 25.1 (12:40) 13.8 (00:00) 19.5 6.94 (19:50) 3.89 (10:20) 0 0 0 0 0
03-10-2019 22.8 (15:40) 13.8 (00:00) 18.3 7.78 (09:50) 4.17 (12:00) 0 0 0 0 0
02-10-2019 26.5 (14:30) 13.6 (00:00) 20.1 8.06 (01:30) 4.72 (09:50) 0 0 0 0 0
01-10-2019 28.7 (14:40) 15.8 (00:00) 22.3 9.44 (13:10) 5.56 (13:30) 0 0 0 0 0
30-09-2019 24.3 (16:30) 13.6 (00:00) 18.9 5 (14:10) 3.89 (14:40) 0.1 0 0.1 0 0
29-09-2019 24.3 (16:00) 11.6 (00:00) 17.9 5.28 (16:30) 2.78 (15:00) 0 0 0 0 0
28-09-2019 24.9 (16:40) 14.9 (00:00) 19.9 5.83 (03:30) 3.61 (03:10) 0 0 0 0 0
27-09-2019 24.5 (11:20) 13.8 (00:00) 19.2 5.28 (18:10) 3.61 (18:20) 0 0 0 0 0
26-09-2019 25.7 (16:50) 15.9 (00:00) 20.8 6.39 (06:10) 3.89 (06:50) 0 0 0 0 0
25-09-2019 25.8 (12:50) 15.7 (00:00) 20.7 7.78 (02:50) 4.72 (14:50) 0 0 0 0 0
24-09-2019 26.4 (16:00) 15.8 (00:00) 21.1 7.22 (03:40) 4.17 (07:10) 0 0 0 0 0
23-09-2019 25.8 (16:00) 14.6 (00:00) 20.2 6.94 (19:10) 3.89 (14:40) 0 0 0 0 0
22-09-2019 25.7 (15:10) 15.7 (00:00) 20.7 9.17 (15:00) 4.72 (16:50) 1.8 1.7 0.1 0 0
21-09-2019 23.6 (14:00) 17.5 (00:00) 20.6 8.33 (14:50) 5.28 (20:40) 0.4 0 0 0 0.4
20-09-2019 24.5 (17:20) 15.2 (00:00) 19.8 7.5 (21:00) 4.44 (18:50) 0.2 0 0 0 0.2
19-09-2019 24.5 (17:00) 13.4 (00:00) 18.9 7.5 (15:30) 3.89 (17:10) 0 0 0 0 0

Gráficas

Temp. máximas Temp. mínimas Temp. medias Precipitaciones Rachas de viento máximas Velocidades máximas media en intervalos de 10 minutos

Datos horarios

Fecha y hora oficial Temperatura (ºC) Velocidad del viento (km/h) Dirección del viento Racha (km/h) Dirección de racha Precipitación (mm) Presión (hPa) Tendencia (hPa) Humedad (%)
2019-10-18 23:00:00 19.3 9 Sudoeste 21 Sudoeste 0 1011.7 0.3 82
2019-10-18 22:00:00 19.2 5 Sudoeste 22 Oeste 0 1011.7 0 86
2019-10-18 21:00:00 19.4 6 Oeste 18 Oeste 0 1011.6 -0.6 87
2019-10-18 20:00:00 20 6 Sudoeste 14 Sudoeste 0 1011.4 -1 89
2019-10-18 19:00:00 20.7 7 Sudoeste 13 Sudoeste 0 1011.7 -1.3 88
2019-10-18 18:00:00 21 5 Sudoeste 10 Sudoeste 0 1012.2 -1.4 85
2019-10-18 17:00:00 21.2 6 Sudoeste 13 Sudoeste 0 1012.4 -2.1 84
2019-10-18 16:00:00 21.3 6 Sudoeste 17 Sudoeste 0 1013 -2 81
2019-10-18 15:00:00 21 9 Sudoeste 17 Sur 0 1013.6 -1.6 87
2019-10-18 14:00:00 20.5 11 Sur 14 Sur 0 1014.5 -0.5 90
2019-10-18 13:00:00 21.2 8 Sur 11 Sur 0 1015 0.3 82
2019-10-18 12:00:00 21.4 6 Sudoeste 10 Sudoeste 0 1015.2 1 81
2019-10-18 11:00:00 20.1 5 Sudoeste 8 Sur 0 1015 0.8 86
2019-10-18 10:00:00 17.9 2 Oeste 7 Oeste 0 1014.7 0.5 97
2019-10-18 09:00:00 14.2 2 Norte 6 Norte 0 1014.2 0.1 99
2019-10-18 08:00:00 13.8 2 Noroeste 5 Noroeste 0 1014.2 0.1 96
2019-10-18 07:00:00 14.1 0 Calma 5 Norte 0 1014.2 -0.2 94
2019-10-18 06:00:00 15.2 3 Norte 6 Noroeste 0 1014.1 -0.6 93
2019-10-18 05:00:00 15.9 4 Norte 9 Noroeste 0 1014.1 -0.8 91
2019-10-18 04:00:00 16.1 5 Norte 9 Norte 0 1014.4 -0.7 90
2019-10-18 03:00:00 16.7 6 Norte 12 Norte 0 1014.7 -0.7 87
2019-10-18 02:00:00 16.5 6 Noroeste 9 Noroeste 0 1014.9 -0.4 90
2019-10-18 01:00:00 17.7 3 Noroeste 15 Noroeste 0 1015.1 0.3 87
2019-10-18 00:00:00 19 7 Noroeste 18 Noroeste 0 1015.4 0.3 87
2019-10-17 23:00:00 19.2 7 Oeste 17 Noroeste 0 1015.3 0.4 86
2019-10-17 22:00:00 19.3 5 Oeste 16 Noroeste 0 1014.8 0.3 87
2019-10-17 21:00:00 19.3 6 Noroeste 19 Oeste 0 1015.1 0.6 86
2019-10-17 20:00:00 19.6 11 Oeste 24 Oeste 0 1014.9 -0.1 85
2019-10-17 19:00:00 20.5 12 Oeste 21 Sudoeste 0 1014.5 -0.8 79
2019-10-17 18:00:00 21.3 7 Sudoeste 18 Sudoeste 0 1014.5 -1.3 74
2019-10-17 17:00:00 21.1 11 Sudoeste 20 Sudoeste 0 1015 -1.3 70
2019-10-17 16:00:00 20.8 13 Sudoeste 22 Sudoeste 0 1015.3 -1.5 65
2019-10-17 15:00:00 20.8 15 Sudoeste 23 Sudoeste 0 1015.8 -0.7 68
2019-10-17 14:00:00 20.8 13 Sudoeste 17 Sudoeste 0 1016.3 0.2 65
2019-10-17 13:00:00 20.3 10 Sudoeste 13 Sudoeste 0 1016.8 0.5 69
2019-10-17 12:00:00 19.8 6 Sudoeste 11 Oeste 0 1016.5 1 71
2019-10-17 11:00:00 20 3 Norte 12 Norte 0 1016.1 0.8 63
2019-10-17 10:00:00 16 4 Norte 8 Norte 0 1016.3 1.3 82
2019-10-17 09:00:00 11.2 4 Norte 7 Noroeste 0 1015.5 0.9 95
2019-10-17 08:00:00 10.4 5 Noroeste 10 Noroeste 0 1015.3 0.8 94
2019-10-17 07:00:00 10.7 4 Noroeste 7 Norte 0 1015 0.4 93
2019-10-17 06:00:00 10.7 4 Noroeste 8 Norte 0 1014.6 -0.2 93
2019-10-17 05:00:00 11.3 3 Noroeste 7 Norte 0 1014.5 -0.1 88
2019-10-17 04:00:00 11.7 4 Noroeste 9 Noroeste 0 1014.6 -0.4 85
2019-10-17 03:00:00 12.8 5 Norte 10 Norte 0 1014.8 -0.2 84
2019-10-17 02:00:00 13.8 4 Noroeste 13 Noroeste 0 1014.6 -0.4 81
2019-10-17 01:00:00 14.7 7 Noroeste 13 Noroeste 0 1015 0.2 78
2019-10-17 00:00:00 16.2 6 Noroeste 18 Noroeste 0 1015 0.3 81
2019-10-16 23:00:00 17.9 9 Noroeste 23 Oeste 0 1015 0.7 78
2019-10-16 22:00:00 18.1 9 Oeste 20 Oeste 0 1014.8 0.5 73
2019-10-16 21:00:00 18.1 9 Oeste 22 Oeste 0 1014.7 0.5 69
2019-10-16 20:00:00 18.6 11 Oeste 22 Oeste 0 1014.3 -0.2 62
2019-10-16 19:00:00 20 13 Oeste 24 Oeste 0 1014.3 -0.4 54
2019-10-16 18:00:00 21.3 7 Sudoeste 21 Oeste 0 1014.2 -1.4 49
2019-10-16 17:00:00 21.8 9 Sudoeste 17 Sudoeste 0 1014.5 -2 45
2019-10-16 16:00:00 21.2 11 Sudoeste 18 Oeste 0 1014.7 -2.3 48
2019-10-16 15:00:00 21.5 8 Sudoeste 18 Oeste 0 1015.6 -1.6 47
2019-10-16 14:00:00 20.3 10 Sudoeste 14 Sudoeste 0 1016.5 -1.1 48
2019-10-16 13:00:00 20.3 9 Sudoeste 16 Sudoeste 0 1017 0 46
2019-10-16 12:00:00 20.6 4 Nordeste 15 Este 0 1017.2 0.7 37
2019-10-16 11:00:00 18 6 Nordeste 14 Nordeste 0 1017.6 1.4 44
2019-10-16 10:00:00 14.5 6 Norte 13 Nordeste 0 1017 1.1 59
2019-10-16 09:00:00 9.8 8 Norte 13 Norte 0 1016.5 0.5 75
2019-10-16 08:00:00 9.5 2 Norte 14 Nordeste 0 1016.2 0.2 77
2019-10-16 07:00:00 9.9 8 Nordeste 13 Norte 0 1015.9 -0.6 74
2019-10-16 06:00:00 10.9 5 Norte 16 Norte 0 1016 -0.8 70
2019-10-16 05:00:00 11.3 9 Norte 17 Norte 0 1016 -0.9 69
2019-10-16 04:00:00 11.2 8 Norte 12 Nordeste 0 1016.5 -0.7 72
2019-10-16 03:00:00 11.5 5 Norte 13 Norte 0 1016.8 -0.4 72
2019-10-16 02:00:00 13.6 4 Noroeste 14 Norte 0 1016.9 -0.3 67
2019-10-16 01:00:00 13.6 6 Norte 11 Norte 0 1017.2 0.3 74
2019-10-16 00:00:00 14.3 6 Norte 12 Noroeste 0 1017.2 0.5 77
2019-10-15 23:00:00 16.5 6 Noroeste 20 Noroeste 0 1017.2 1 70
2019-10-15 22:00:00 17.7 9 Noroeste 23 Oeste 0 1016.9 0.6 62
2019-10-15 21:00:00 17.8 9 Oeste 19 Oeste 0 1016.7 0.5 56
2019-10-15 20:00:00 17.8 9 Oeste 21 Oeste 0 1016.2 -0.1 58
2019-10-15 19:00:00 18.8 10 Oeste 24 Oeste 0 1016.3 -0.2 62
2019-10-15 18:00:00 19.6 13 Sudoeste 22 Sudoeste 0 1016.2 -1.1 63
2019-10-15 17:00:00 20.4 15 Sudoeste 21 Sudoeste 0 1016.3 -1.7 54
2019-10-15 16:00:00 20.8 12 Sudoeste 19 Sudoeste 0 1016.5 -1.8 45
2019-10-15 15:00:00 20.7 14 Sudoeste 19 Sur 0 1017.3 -1.2 48
2019-10-15 14:00:00 20.9 11 Sudoeste 18 Sur 0 1018 -0.6 42
2019-10-15 13:00:00 20.2 3 Noroeste 18 Nordeste 0 1018.3 0.2 38
2019-10-15 12:00:00 18.6 9 Norte 24 Norte 0 1018.5 0.7 44
2019-10-15 11:00:00 16.1 15 Norte 23 Norte 0 1018.6 1.3 61
2019-10-15 10:00:00 14.2 9 Nordeste 19 Norte 0 1018.1 1 67
2019-10-15 09:00:00 10 8 Nordeste 15 Nordeste 0 1017.8 0.9 82
2019-10-15 08:00:00 9.9 8 Nordeste 18 Norte 0 1017.3 0.2 83
2019-10-15 07:00:00 10.8 13 Norte 18 Norte 0 1017.1 0.1 81
2019-10-15 06:00:00 10.7 9 Norte 16 Norte 0 1016.9 -0.1 86
2019-10-15 05:00:00 11.2 11 Norte 19 Norte 0 1017.1 0.1 85
2019-10-15 04:00:00 10.8 6 Nordeste 11 Nordeste 0 1017 0.2 85
2019-10-15 03:00:00 12.6 6 Norte 17 Noroeste 0 1017 0.5 79
2019-10-15 02:00:00 13.7 8 Norte 17 Norte 0 1017 1 77
2019-10-15 01:00:00 13.5 6 Norte 11 Norte 0 1016.8 1.5 78
2019-10-15 00:00:00 14.9 6 Noroeste 13 Noroeste 0 1016.5 1.9 71
2019-10-14 23:00:00 15.9 6 Noroeste 15 Noroeste 0 1016 2.1 71
2019-10-14 22:00:00 16.8 7 Noroeste 15 Noroeste 0 1015.3 2.1 69
2019-10-14 21:00:00 18.5 6 Noroeste 21 Noroeste 0 1014.6 1.7 64
2019-10-14 20:00:00 19.1 10 Noroeste 36 Oeste 0 1013.9 1.5 67
2019-10-14 19:00:00 18.9 22 Oeste 47 Oeste 0 1013.2 0.6 82
2019-10-14 18:00:00 20.6 22 Oeste 46 Oeste 0 1012.9 0.2 69
2019-10-14 17:00:00 21.6 15 Sudoeste 51 Oeste 0 1012.4 -0.9 62
2019-10-14 16:00:00 21.4 14 Sudoeste 41 Sudoeste 0 1012.6 -0.7 60
2019-10-14 15:00:00 20.7 23 Sudoeste 37 Sudoeste 0 1012.7 -0.2 67
2019-10-14 14:00:00 21.1 13 Sudoeste 21 Sudoeste 0 1013.3 0.9 65
2019-10-14 13:00:00 20.8 7 Oeste 18 Oeste 0 1013.3 1.7 66
2019-10-14 12:00:00 20.7 5 Oeste 19 Noroeste 0 1012.9 2.3 64
2019-10-14 11:00:00 18.7 13 Noroeste 21 Oeste 0 1012.4 2.5 82
2019-10-14 10:00:00 18.3 5 Noroeste 16 Noroeste 0 1011.6 2.3 84
2019-10-14 09:00:00 17.4 9 Noroeste 33 Oeste 0 1010.6 1.8 84
2019-10-14 08:00:00 18.4 21 Oeste 39 Sudoeste 0 1009.9 1.4 83
2019-10-14 07:00:00 18.5 22 Sudoeste 32 Sudoeste 0 1009.3 0.9 87
2019-10-14 06:00:00 18 17 Oeste 70 Sudoeste 1.4 1008.8 0.2 88
2019-10-14 05:00:00 20.6 25 Sudoeste 33 Sudoeste 0 1008.5 0.5 86
2019-10-14 04:00:00 20.4 18 Sudoeste 27 Sudoeste 0 1008.4 0.1 88
2019-10-14 03:00:00 20.3 17 Sudoeste 22 Sudoeste 0 1008.6 0.4 89
2019-10-14 02:00:00 19.9 5 Sudoeste 20 Oeste 0 1008 0.2 89
2019-10-14 01:00:00 20 9 Oeste 18 Oeste 0 1008.3 0.6 84
2019-10-14 00:00:00 19.6 6 Oeste 15 Oeste 0 1008.2 0.7 90
2019-10-13 23:00:00 19.4 4 Noroeste 14 Noroeste 0 1007.8 0.4 87
2019-10-13 22:00:00 20.1 8 Noroeste 21 Noroeste 0 1007.7 -0.1 85
2019-10-13 21:00:00 19.8 8 Noroeste 17 Noroeste 0 1007.5 -0.3 81
2019-10-13 20:00:00 21 6 Noroeste 17 Oeste 0 1007.4 -1.1 81
2019-10-13 19:00:00 22.2 7 Noroeste 21 Oeste 0 1007.8 -1.1 75
2019-10-13 18:00:00 22 10 Oeste 15 Oeste 0 1007.8 -1.9 79
2019-10-13 17:00:00 22.9 6 Sudoeste 15 Oeste 0 1008.5 -1.9 75
2019-10-13 16:00:00 22.8 8 Sudoeste 14 Sudoeste 0 1008.9 -2.3 74
2019-10-13 15:00:00 22.7 12 Sudoeste 16 Sudoeste 0 1009.7 -1.8 73
2019-10-13 14:00:00 23.4 8 Sur 16 Sudoeste 0 1010.4 -0.9 68
2019-10-13 13:00:00 22.8 8 Sur 14 Sur 0 1011.2 -0.1 72
2019-10-13 12:00:00 22.5 8 Sur 17 Este 0 1011.5 0.3 71
2019-10-13 11:00:00 19.6 11 Este 16 Este 0 1011.3 0.2 89
2019-10-13 10:00:00 15.6 8 Nordeste 14 Nordeste 0 1011.3 0.3 99
2019-10-13 09:00:00 14.1 7 Nordeste 13 Este 0 1011.2 0.8 99
2019-10-13 08:00:00 13.7 6 Nordeste 12 Nordeste 0 1011.1 0.4 99
2019-10-13 07:00:00 13.7 5 Nordeste 9 Nordeste 0 1011 0.3 97
2019-10-13 06:00:00 14.2 6 Nordeste 9 Nordeste 0 1010.4 -0.7 97
2019-10-13 05:00:00 15.1 6 Este 10 Este 0 1010.7 -0.5 97
2019-10-13 04:00:00 14.6 3 Este 10 Este 0 1010.7 -0.9 94
2019-10-13 03:00:00 15.9 4 Este 6 Oeste 0 1011.1 -0.4 89
2019-10-13 02:00:00 19.3 3 Noroeste 14 Oeste 0 1011.2 -0.1 84
2019-10-13 01:00:00 19.9 5 Sudoeste 14 Oeste 0 1011.6 0.8 84
2019-10-13 00:00:00 20.1 6 Sudoeste 19 Oeste 0 1011.5 0.7 86
2019-10-12 23:00:00 20.3 6 Sudoeste 19 Sudoeste 0 1011.3 1.2 86
2019-10-12 22:00:00 20.3 12 Sudoeste 19 Sudoeste 0 1010.8 0.9 86
2019-10-12 21:00:00 20.5 8 Sudoeste 18 Sudoeste 0 1010.8 0.9 87
2019-10-12 20:00:00 20.9 5 Sudoeste 20 Sudoeste 0 1010.1 0 88
2019-10-12 19:00:00 21.4 10 Sudoeste 23 Sur 0 1009.9 -0.1 90
2019-10-12 18:00:00 21.9 12 Sur 28 Sur 0 1009.9 -0.9 86
2019-10-12 17:00:00 22.9 14 Sudoeste 24 Sur 0 1010.1 -0.9 80
2019-10-12 16:00:00 23.5 15 Sudoeste 25 Sudoeste 0 1010 -1.4 77
2019-10-12 15:00:00 22.7 13 Sudoeste 19 Sudoeste 0 1010.8 -1.1 77
2019-10-12 14:00:00 24 6 Sudoeste 14 Sur 0 1011 0 69
2019-10-12 13:00:00 24.4 5 Sudeste 19 Sudoeste 0 1011.4 1.3 64
2019-10-12 12:00:00 23.8 5 Sudoeste 10 Sudoeste 0 1011.9 2.2 67
2019-10-12 11:00:00 23.8 4 Sudoeste 15 Este 0 1011 1.1 65
2019-10-12 10:00:00 21.9 2 Nordeste 8 Nordeste 0 1010.1 0.1 77
2019-10-12 09:00:00 18.4 5 Nordeste 11 Nordeste 0 1009.7 0.4 89
2019-10-12 08:00:00 17.9 6 Nordeste 9 Nordeste 0 1009.9 0 89
2019-10-12 07:00:00 18.2 6 Norte 14 Este 0 1010 -0.2 87
2019-10-12 06:00:00 18.8 7 Este 15 Nordeste 0 1009.3 -1 88
2019-10-12 05:00:00 19.9 5 Este 9 Este 0 1009.9 -0.9 84
2019-10-12 04:00:00 20.1 4 Este 12 Este 0 1010.2 -1.4 82
2019-10-12 03:00:00 20.4 6 Este 12 Este 0 1010.3 -1.7 83
2019-10-12 02:00:00 20.3 9 Este 15 Este 0 1010.8 -1.3 84
2019-10-12 01:00:00 20 4 Este 9 Nordeste 0 1011.6 -0.7 86
2019-10-12 00:00:00 20.4 3 Norte 10 Nordeste 0 1012 1 86
2019-10-11 23:00:00 20.8 0 Calma 9 Oeste 0 1012.1 0.5 86
2019-10-11 22:00:00 21.2 5 Oeste 11 Oeste 0 1012.3 0.8 86
2019-10-11 21:00:00 21 3 Este 8 Este 0 1011 -0.5 84
2019-10-11 20:00:00 21.7 3 Oeste 14 Oeste 0 1011.6 0.2 81
2019-10-11 19:00:00 22.5 6 Oeste 13 Noroeste 0 1011.5 -0.3 75
2019-10-11 18:00:00 22.7 5 Sudoeste 14 Oeste 0 1011.5 -1.1 76
2019-10-11 17:00:00 25 5 Sudoeste 9 Sur 0 1011.4 -1.7 60
2019-10-11 16:00:00 25.4 5 Sur 12 Sur 0 1011.8 -2.2 56
2019-10-11 15:00:00 24.9 6 Sur 15 Sudeste 0 1012.6 -1.2 55
2019-10-11 14:00:00 26.1 7 Sudeste 18 Sur 0 1013.1 -0.9 50
2019-10-11 13:00:00 24 7 Sur 18 Sur 0 1014 0.8 62
2019-10-11 12:00:00 24.1 5 Sur 12 Sur 0 1013.8 1.3 58
2019-10-11 11:00:00 22.5 6 Este 18 Este 0 1014 1.7 63
2019-10-11 10:00:00 21.2 11 Este 17 Nordeste 0 1013.2 1 68
2019-10-11 09:00:00 18.7 10 Nordeste 16 Este 0 1012.5 0.4 75
2019-10-11 08:00:00 18.3 10 Nordeste 15 Nordeste 0 1012.3 0.3 77
2019-10-11 07:00:00 17.9 9 Nordeste 13 Nordeste 0 1012.2 0 79
2019-10-11 06:00:00 18.1 7 Nordeste 14 Nordeste 0 1012.1 -0.2 81
2019-10-11 05:00:00 18.2 10 Nordeste 14 Nordeste 0 1012 -0.3 81
2019-10-11 04:00:00 18.6 10 Nordeste 17 Nordeste 0 1012.2 -0.1 80
2019-10-11 03:00:00 18.7 8 Nordeste 14 Nordeste 0 1012.3 -0.2 78
2019-10-11 02:00:00 18.5 6 Nordeste 12 Norte 0 1012.3 0 80
2019-10-11 01:00:00 18.8 6 Nordeste 11 Norte 0 1012.3 0.4 80
2019-10-11 00:00:00 18.8 6 Norte 10 Norte 0 1012.5 1.1 80
2019-10-10 23:00:00 20.9 0 Calma 8 Oeste 0 1012.3 1.4 74
2019-10-10 22:00:00 22.1 4 Sudoeste 10 Sudoeste 0 1011.9 1.1 71
2019-10-10 21:00:00 22.4 5 Oeste 17 Oeste 0 1011.4 0.5 68
2019-10-10 20:00:00 23 5 Oeste 12 Noroeste 0 1010.9 -0.3 64
2019-10-10 19:00:00 24.2 6 Oeste 15 Oeste 0 1010.8 -0.4 58
2019-10-10 18:00:00 24.6 9 Oeste 15 Oeste 0 1010.9 -0.6 61
2019-10-10 17:00:00 26.3 8 Oeste 15 Oeste 0 1011.2 -1.4 55
2019-10-10 16:00:00 25.6 9 Oeste 14 Oeste 0 1011.2 -1.8 47
2019-10-10 15:00:00 26.1 5 Sudoeste 13 Sudoeste 0 1011.5 -1.7 49
2019-10-10 14:00:00 24.4 9 Sudoeste 11 Sudoeste 0 1012.6 -0.5 52
2019-10-10 13:00:00 24 6 Sudoeste 10 Sudoeste 0 1013 0.6 48
2019-10-10 12:00:00 24.1 5 Sur 11 Sur 0 1013.2 1.6 51
2019-10-10 11:00:00 22.5 4 Sudoeste 9 Sur 0 1013.1 2 68
2019-10-10 10:00:00 20.8 2 Sudeste 6 Este 0 1012.4 1.6 71
2019-10-10 09:00:00 14.7 5 Este 7 Este 0 1011.6 1 85
2019-10-10 08:00:00 14.8 4 Nordeste 8 Nordeste 0 1011.1 0.7 82
2019-10-10 07:00:00 15.7 5 Nordeste 10 Norte 0 1010.8 0.4 77
2019-10-10 06:00:00 15.8 6 Norte 8 Nordeste 0 1010.6 0.2 84
2019-10-10 05:00:00 16.1 3 Este 7 Este 0 1010.4 0.2 62
2019-10-10 04:00:00 18.4 3 Este 13 Norte 0 1010.4 -0.3 50
2019-10-10 03:00:00 20.6 11 Norte 16 Norte 0 1010.4 -0.2 43
2019-10-10 02:00:00 17.6 6 Norte 11 Norte 0 1010.2 -0.4 62
2019-10-10 01:00:00 17.6 3 Noroeste 5 Noroeste 0 1010.7 0.2 87
2019-10-10 00:00:00 19 2 Noroeste 9 Oeste 0 1010.6 0.3 86
2019-10-09 23:00:00 19.9 4 Noroeste 12 Oeste 0 1010.6 0.6 82
2019-10-09 22:00:00 20.5 6 Noroeste 14 Noroeste 0 1010.5 0.4 82
2019-10-09 21:00:00 21.2 7 Oeste 16 Noroeste 0 1010.3 0 73
2019-10-09 20:00:00 22.6 7 Noroeste 16 Noroeste 0 1010 -0.4 61
2019-10-09 19:00:00 25 6 Oeste 13 Oeste 0 1010.1 -0.5 45
2019-10-09 18:00:00 25 7 Sudoeste 12 Oeste 0 1010.3 -0.7 49
2019-10-09 17:00:00 25.3 6 Sudoeste 15 Oeste 0 1010.4 -1.3 58
2019-10-09 16:00:00 24.2 9 Oeste 15 Oeste 0 1010.6 -1.7 62
2019-10-09 15:00:00 24.6 5 Sudoeste 12 Oeste 0 1011 -1.4 62
2019-10-09 14:00:00 24 5 Sudoeste 16 Oeste 0 1011.7 -0.5 67
2019-10-09 13:00:00 22.6 9 Oeste 17 Oeste 0 1012.3 0.4 68
2019-10-09 12:00:00 21.9 7 Oeste 12 Oeste 0 1012.4 1.1 71
2019-10-09 11:00:00 20.5 8 Oeste 12 Oeste 0 1012.2 1.3 78
2019-10-09 10:00:00 18.9 4 Noroeste 9 Noroeste 0 1011.9 1.2 83
2019-10-09 09:00:00 15.3 0 Calma 8 Noroeste 0 1011.3 0.9 94
2019-10-09 08:00:00 15.1 4 Noroeste 6 Noroeste 0 1010.9 0.6 94
2019-10-09 07:00:00 15.5 2 Norte 5 Noroeste 0 1010.7 0 93
2019-10-09 06:00:00 16.6 2 Oeste 6 Oeste 0 1010.4 -0.5 93
2019-10-09 05:00:00 17.8 0 Calma 6 Oeste 0 1010.3 -1.1 90
2019-10-09 04:00:00 18.5 4 Oeste 9 Noroeste 0 1010.7 -1 89
2019-10-09 03:00:00 19.2 5 Oeste 9 Oeste 0 1010.9 -1 84
2019-10-09 02:00:00 18.9 4 Noroeste 9 Noroeste 0 1011.4 -0.4 82
2019-10-09 01:00:00 19.2 5 Noroeste 11 Noroeste 0 1011.7 0.3 83
2019-10-09 00:00:00 19.5 6 Noroeste 10 Norte 0 1011.9 0.7 83
2019-10-08 23:00:00 19.7 5 Noroeste 10 Noroeste 0 1011.8 0.7 82
2019-10-08 22:00:00 20.1 5 Noroeste 10 Noroeste 0 1011.4 0.5 77
2019-10-08 21:00:00 21.2 4 Noroeste 14 Oeste 0 1011.2 0.2 73
2019-10-08 20:00:00 22.1 6 Oeste 15 Oeste 0 1011.1 0 72
2019-10-08 19:00:00 24.9 7 Oeste 15 Oeste 0 1010.9 -0.6 58
2019-10-08 18:00:00 25 9 Noroeste 23 Oeste 0 1011 -0.6 60
2019-10-08 17:00:00 24 14 Oeste 26 Oeste 0 1011.1 -1.5 61
2019-10-08 16:00:00 24.4 13 Oeste 19 Oeste 0 1011.5 -1.4 60
2019-10-08 15:00:00 26.5 7 Sudoeste 12 Sudoeste 0 1011.6 -1.6 49
2019-10-08 14:00:00 25.1 6 Sudoeste 12 Sudoeste 0 1012.6 -0.6 49
2019-10-08 13:00:00 26.2 6 Sur 12 Sur 0 1012.9 0.3 48
2019-10-08 12:00:00 26.4 7 Sur 13 Sur 0 1013.2 1.2 46
2019-10-08 11:00:00 24.9 4 Sur 8 Sudoeste 0 1013.2 1.5 49
2019-10-08 10:00:00 22.3 0 Calma 6 Este 0 1012.6 1.4 58
2019-10-08 09:00:00 15.6 4 Nordeste 9 Nordeste 0 1012 1.6 81
2019-10-08 08:00:00 15.1 5 Nordeste 12 Nordeste 0 1011.7 1.1 83
2019-10-08 07:00:00 15.9 7 Nordeste 14 Nordeste 0 1011.2 0.6 79
2019-10-08 06:00:00 16.1 6 Nordeste 10 Nordeste 0 1010.4 -0.2 85
2019-10-08 05:00:00 15.2 0 Calma 6 Este 0 1010.6 0.4 73
2019-10-08 04:00:00 16.5 4 Este 9 Este 0 1010.6 0.2 66
2019-10-08 03:00:00 18 4 Este 19 Nordeste 0 1010.6 -0.2 58
2019-10-08 02:00:00 21.3 15 Nordeste 21 Nordeste 0 1010.2 -1.1 49
2019-10-08 01:00:00 21.1 10 Norte 17 Norte 0 1010.4 -0.9 51
2019-10-08 00:00:00 20.4 6 Norte 12 Noroeste 0 1010.8 -0.4 53
2019-10-07 23:00:00 22.2 5 Noroeste 14 Oeste 0 1011.3 0.1 46
2019-10-07 22:00:00 21.2 6 Noroeste 17 Noroeste 0 1011.3 0.1 54
2019-10-07 21:00:00 20.8 7 Noroeste 15 Noroeste 0 1011.2 0.1 75
2019-10-07 20:00:00 21.7 6 Oeste 18 Oeste 0 1011.2 -0.1 75
2019-10-07 19:00:00 22.7 9 Noroeste 20 Oeste 0 1011.2 -0.4 66
2019-10-07 18:00:00 24.9 6 Oeste 13 Oeste 0 1011.1 -1.2 49
2019-10-07 17:00:00 25.4 5 Sudoeste 12 Sudoeste 0 1011.3 -1.6 51
2019-10-07 16:00:00 24.1 9 Sudoeste 14 Sudoeste 0 1011.6 -1.8 60
2019-10-07 15:00:00 25.5 5 Sudoeste 11 Sudoeste 0 1012.3 -1.3 38
2019-10-07 14:00:00 22.7 7 Sudoeste 11 Sudoeste 0 1012.9 -0.6 60
2019-10-07 13:00:00 22 5 Sudoeste 12 Sur 0 1013.4 0.4 64
2019-10-07 12:00:00 21.4 6 Sudoeste 10 Sur 0 1013.6 1.2 61
2019-10-07 11:00:00 21.5 5 Sur 9 Sur 0 1013.5 1.5 49
2019-10-07 10:00:00 20.4 0 Calma 7 Norte 0 1013 1.1 57
2019-10-07 09:00:00 16.2 3 Norte 12 Nordeste 0 1012.4 0.7 62
2019-10-07 08:00:00 16.1 10 Norte 14 Norte 0 1012 0.1 63
2019-10-07 07:00:00 14.5 6 Norte 8 Norte 0 1011.9 -0.2 72
2019-10-07 06:00:00 15.8 5 Nordeste 12 Nordeste 0 1011.7 -1.1 70
2019-10-07 05:00:00 16.2 6 Nordeste 16 Nordeste 0 1011.9 -1 69
2019-10-07 04:00:00 16.4 7 Nordeste 18 Nordeste 0 1012.1 -1.3 71
2019-10-07 03:00:00 19.6 13 Norte 19 Norte 0 1012.8 -0.7 55
2019-10-07 02:00:00 18.7 8 Norte 13 Norte 0 1012.9 -0.7 67
2019-10-07 01:00:00 17.8 5 Noroeste 12 Norte 0 1013.4 -0.2 83
2019-10-07 00:00:00 17.9 7 Noroeste 13 Noroeste 0 1013.5 0.2 83
2019-10-06 23:00:00 17.7 5 Noroeste 14 Oeste 0 1013.6 0.4 86
2019-10-06 22:00:00 18.3 6 Noroeste 17 Noroeste 0 1013.6 0.4 87
2019-10-06 21:00:00 18.8 6 Noroeste 16 Oeste 0 1013.3 -0.1 88
2019-10-06 20:00:00 19.7 7 Oeste 20 Noroeste 0 1013.2 -0.4 83
2019-10-06 19:00:00 20.9 10 Oeste 19 Oeste 0 1013.2 -0.8 72
2019-10-06 18:00:00 22.3 9 Oeste 16 Oeste 0 1013.4 -1.1 60
2019-10-06 17:00:00 22.9 6 Sudoeste 18 Sudoeste 0 1013.6 -1.5 60
2019-10-06 16:00:00 23.3 6 Oeste 18 Oeste 0 1014 -1.3 59
2019-10-06 15:00:00 22.6 9 Oeste 15 Oeste 0 1014.5 -0.9 60
2019-10-06 14:00:00 22.2 7 Sudoeste 13 Sudoeste 0 1015.1 0.2 60
2019-10-06 13:00:00 21.8 7 Sudoeste 11 Sudoeste 0 1015.3 1 64
2019-10-06 12:00:00 22.6 6 Sudoeste 12 Este 0 1015.4 1.8 57
2019-10-06 11:00:00 22 5 Norte 15 Norte 0 1014.9 1.6 51
2019-10-06 10:00:00 17.3 11 Norte 17 Norte 0 1014.3 1.5 66
2019-10-06 09:00:00 14.3 11 Norte 18 Norte 0 1013.6 1.1 79
2019-10-06 08:00:00 14.2 11 Norte 24 Norte 0 1013.3 1.1 79
2019-10-06 07:00:00 14.7 8 Norte 18 Norte 0 1012.8 0.5 75
2019-10-06 06:00:00 15.7 10 Norte 18 Norte 0 1012.5 -0.1 71
2019-10-06 05:00:00 16.3 5 Norte 23 Norte 0 1012.2 -0.6 68
2019-10-06 04:00:00 17.2 14 Norte 21 Norte 0 1012.3 -0.2 66
2019-10-06 03:00:00 17.6 12 Norte 24 Norte 0 1012.6 0 67
2019-10-06 02:00:00 18.2 12 Norte 24 Noroeste 0 1012.8 0.3 66
2019-10-06 01:00:00 16.4 4 Noroeste 12 Noroeste 0 1012.5 0.2 84
2019-10-06 00:00:00 16.2 6 Noroeste 9 Noroeste 0 1012.6 0.5 88
2019-10-05 23:00:00 16.7 4 Noroeste 6 Oeste 0 1012.5 0.8 88
2019-10-05 22:00:00 18 4 Oeste 14 Noroeste 0 1012.3 0.6 87
2019-10-05 21:00:00 18.3 6 Oeste 14 Oeste 0 1012.1 0.8 89
2019-10-05 20:00:00 19.4 5 Oeste 18 Oeste 0 1011.7 0 87
2019-10-05 19:00:00 20.6 12 Oeste 18 Oeste 0 1011.7 -0.1 77
2019-10-05 18:00:00 21.7 10 Oeste 21 Oeste 0 1011.3 -0.8 69
2019-10-05 17:00:00 22.3 8 Oeste 17 Sudoeste 0 1011.7 -0.9 68
2019-10-05 16:00:00 22.9 8 Oeste 20 Oeste 0 1011.8 -1.1 63
2019-10-05 15:00:00 22.8 13 Oeste 22 Oeste 0 1012.1 -0.4 61
2019-10-05 14:00:00 21.6 13 Oeste 22 Oeste 0 1012.6 -0.1 69
2019-10-05 13:00:00 21.5 10 Sudoeste 17 Sudoeste 0 1012.9 0.7 70
2019-10-05 12:00:00 22.6 8 Norte 15 Norte 0 1012.5 0.8 56
2019-10-05 11:00:00 20.8 6 Norte 15 Norte 0 1012.7 1.6 63
2019-10-05 10:00:00 18.3 5 Norte 16 Norte 0 1012.2 1.3 71
2019-10-05 09:00:00 14.6 5 Norte 13 Norte 0 1011.7 1.2 86
2019-10-05 08:00:00 15.2 7 Norte 12 Norte 0 1011.1 0.6 84
2019-10-05 07:00:00 16.1 5 Norte 17 Noroeste 0 1010.9 0.2 80
2019-10-05 06:00:00 16.5 8 Norte 21 Norte 0 1010.5 -0.5 80
2019-10-05 05:00:00 17.5 11 Norte 26 Norte 0 1010.5 -0.4 79
2019-10-05 04:00:00 17.7 12 Norte 21 Norte 0 1010.7 -0.9 80
2019-10-05 03:00:00 16 4 Noroeste 10 Noroeste 0 1011 -0.8 91
2019-10-05 02:00:00 16.8 6 Noroeste 10 Noroeste 0 1010.9 -0.9 90
2019-10-05 01:00:00 18.3 6 Noroeste 17 Oeste 0 1011.6 0 92
2019-10-05 00:00:00 19.3 7 Noroeste 17 Oeste 0 1011.8 0.1 86
2019-10-04 23:00:00 19.4 6 Noroeste 16 Oeste 0 1011.8 0.3 88
2019-10-04 22:00:00 19.7 8 Noroeste 18 Noroeste 0 1011.6 0.2 90
2019-10-04 21:00:00 19.8 9 Noroeste 22 Oeste 0 1011.7 0.3 89
2019-10-04 20:00:00 20.2 10 Oeste 25 Noroeste 0 1011.5 0 87
2019-10-04 19:00:00 21.2 13 Oeste 22 Noroeste 0 1011.4 -0.6 84
2019-10-04 18:00:00 22.5 6 Oeste 24 Oeste 0 1011.4 -1.3 75
2019-10-04 17:00:00 23.4 8 Oeste 19 Sudoeste 0 1011.5 -2 69
2019-10-04 16:00:00 23.6 6 Oeste 21 Oeste 0 1012 -1.8 70
2019-10-04 15:00:00 23 12 Oeste 24 Oeste 0 1012.7 -1.4 72
2019-10-04 14:00:00 22.6 6 Oeste 20 Oeste 0 1013.5 -0.6 73
2019-10-04 13:00:00 23.8 7 Oeste 19 Noroeste 0 1013.8 -0.2 66
2019-10-04 12:00:00 23.7 8 Norte 22 Norte 0 1014.1 0.4 60
2019-10-04 11:00:00 21.8 10 Norte 22 Norte 0 1014.1 0.8 68
2019-10-04 10:00:00 18.7 9 Norte 23 Norte 0 1014 0.8 79
2019-10-04 09:00:00 14.2 3 Noroeste 5 Nordeste 0 1013.7 0.5 93
2019-10-04 08:00:00 15.1 2 Nordeste 10 Nordeste 0 1013.3 0.5 90
2019-10-04 07:00:00 15.3 5 Nordeste 10 Nordeste 0 1013.2 0.3 89
2019-10-04 06:00:00 15.7 6 Nordeste 14 Norte 0 1013.2 -0.3 87
2019-10-04 05:00:00 17.6 5 Norte 21 Norte 0 1012.8 -0.9 81
2019-10-04 04:00:00 18.2 11 Norte 23 Norte 0 1012.9 -1.1 79
2019-10-04 03:00:00 18.5 9 Norte 19 Norte 0 1013.5 -0.6 80
2019-10-04 02:00:00 16.5 7 Norte 14 Norte 0 1013.7 -0.3 89
2019-10-04 01:00:00 15.3 0 Calma 5 Noroeste 0 1014 0.2 94
2019-10-04 00:00:00 15.8 4 Noroeste 6 Noroeste 0 1014.1 0.4 93
2019-10-03 23:00:00 16.1 2 Noroeste 6 Noroeste 0 1014 0.1 89
2019-10-03 22:00:00 18.8 4 Sudoeste 9 Sudoeste 0 1013.8 -0.2 90
2019-10-03 21:00:00 19.2 4 Oeste 12 Oeste 0 1013.7 -0.6 89
2019-10-03 20:00:00 20.4 6 Sudoeste 11 Sudoeste 0 1013.9 -0.5 82
2019-10-03 19:00:00 21.6 6 Oeste 14 Oeste 0 1014 -0.7 78
2019-10-03 18:00:00 22 5 Sudoeste 18 Oeste 0 1014.3 -0.7 74
2019-10-03 17:00:00 21.9 8 Oeste 19 Oeste 0 1014.4 -1 71
2019-10-03 16:00:00 22 9 Oeste 18 Oeste 0 1014.7 -1.3 64
2019-10-03 15:00:00 22.5 6 Sudoeste 19 Oeste 0 1015 -1.3 63
2019-10-03 14:00:00 20.9 10 Sudoeste 20 Oeste 0 1015.4 -0.4 68
2019-10-03 13:00:00 19.4 11 Oeste 21 Oeste 0 1016 0.9 69
2019-10-03 12:00:00 19.3 15 Oeste 21 Oeste 0 1016.3 1.3 64
2019-10-03 11:00:00 20.4 3 Norte 21 Norte 0 1015.8 1.1 55
2019-10-03 10:00:00 16.5 13 Norte 28 Norte 0 1015.1 1 68
2019-10-03 09:00:00 14.4 12 Noroeste 24 Noroeste 0 1015 1.3 78
2019-10-03 08:00:00 14.4 10 Noroeste 21 Norte 0 1014.7 1.3 78
2019-10-03 07:00:00 14.6 9 Norte 21 Norte 0 1014.1 0.1 77
2019-10-03 06:00:00 15.5 12 Norte 23 Norte 0 1013.7 -0.1 74
2019-10-03 05:00:00 15.6 10 Norte 17 Noroeste 0 1013.4 -0.1 75
2019-10-03 04:00:00 15.2 6 Noroeste 9 Noroeste 0 1014 0.2 77
2019-10-03 03:00:00 16.5 6 Noroeste 12 Norte 0 1013.8 0.1 72
2019-10-03 02:00:00 18.2 7 Noroeste 18 Noroeste 0 1013.5 0 68
2019-10-03 01:00:00 18.9 10 Noroeste 19 Norte 0 1013.8 0.5 65
2019-10-03 00:00:00 17.6 8 Noroeste 14 Noroeste 0 1013.7 0.8 69
2019-10-02 23:00:00 17.4 6 Noroeste 11 Oeste 0 1013.5 0.6 82
2019-10-02 22:00:00 19.1 5 Noroeste 13 Noroeste 0 1013.3 0.3 85
2019-10-02 21:00:00 20 5 Oeste 15 Oeste 0 1012.9 0 82
2019-10-02 20:00:00 20.3 10 Oeste 24 Oeste 0 1012.9 -0.3 82
2019-10-02 19:00:00 21.1 8 Oeste 21 Sudoeste 0 1013 -0.2 77
2019-10-02 18:00:00 22.8 9 Sudoeste 21 Oeste 0 1012.9 -0.7 70
2019-10-02 17:00:00 22.3 11 Oeste 25 Oeste 0 1013.2 -0.8 69
2019-10-02 16:00:00 24.1 8 Sudoeste 24 Oeste 0 1013.2 -1 61
2019-10-02 15:00:00 24 10 Sudoeste 24 Noroeste 0 1013.6 -1.2 56
2019-10-02 14:00:00 25.9 10 Noroeste 24 Noroeste 0 1014 -0.6 43
2019-10-02 13:00:00 23.6 9 Noroeste 29 Nordeste 0 1014.2 0 45
2019-10-02 12:00:00 21.3 11 Norte 24 Noroeste 0 1014.8 0.9 56
2019-10-02 11:00:00 19.3 12 Noroeste 26 Noroeste 0 1014.6 0.9 67
2019-10-02 10:00:00 16.3 17 Noroeste 29 Noroeste 0 1014.2 1.1 80
2019-10-02 09:00:00 14.2 9 Noroeste 19 Noroeste 0 1013.9 0.5 91
2019-10-02 08:00:00 13.9 6 Noroeste 14 Noroeste 0 1013.7 0.8 89
2019-10-02 07:00:00 14.8 8 Noroeste 14 Norte 0 1013.1 0 84
2019-10-02 06:00:00 15.9 6 Oeste 15 Noroeste 0 1013.4 -0.1 80
2019-10-02 05:00:00 16.5 6 Noroeste 18 Noroeste 0 1012.9 -0.7 79
2019-10-02 04:00:00 17.1 10 Noroeste 18 Noroeste 0 1013.1 -0.4 77
2019-10-02 03:00:00 18.1 9 Noroeste 18 Noroeste 0 1013.5 0.1 73
2019-10-02 02:00:00 20.1 13 Noroeste 29 Norte 0 1013.6 0.5 68
2019-10-02 01:00:00 21.1 14 Noroeste 27 Noroeste 0 1013.5 1.3 67
2019-10-02 00:00:00 22.1 13 Noroeste 23 Noroeste 0 1013.4 1.5 66
2019-10-01 23:00:00 22.4 12 Noroeste 26 Noroeste 0 1013.1 1.4 62
2019-10-01 22:00:00 20.8 6 Noroeste 20 Noroeste 0 1012.2 0.7 75
2019-10-01 21:00:00 21.4 7 Noroeste 19 Oeste 0 1011.9 0.5 79
2019-10-01 20:00:00 21.7 11 Oeste 26 Oeste 0 1011.7 0.1 82
2019-10-01 19:00:00 23 12 Oeste 25 Oeste 0 1011.5 0 73
2019-10-01 18:00:00 23 9 Oeste 31 Oeste 0 1011.4 -0.2 73
2019-10-01 17:00:00 22.6 16 Oeste 33 Oeste 0 1011.6 -0.6 73
2019-10-01 16:00:00 24 11 Sudoeste 28 Oeste 0 1011.5 -0.9 69
2019-10-01 15:00:00 26.6 14 Oeste 32 Noroeste 0 1011.6 -1 51
2019-10-01 14:00:00 27.8 15 Noroeste 34 Norte 0 1012.2 -0.2 40
2019-10-01 13:00:00 26.4 14 Noroeste 30 Noroeste 0 1012.4 0.7 45
2019-10-01 12:00:00 23.8 17 Noroeste 30 Noroeste 0 1012.6 1.7 55
2019-10-01 11:00:00 21.7 15 Noroeste 32 Noroeste 0 1012.4 1.9 66
2019-10-01 10:00:00 19.4 13 Noroeste 26 Noroeste 0 1011.7 1.5 77
2019-10-01 09:00:00 17 9 Noroeste 19 Noroeste 0 1010.9 1.1 86
2019-10-01 08:00:00 16.9 8 Noroeste 17 Norte 0 1010.5 0.9 85
2019-10-01 07:00:00 17.5 10 Noroeste 24 Norte 0 1010.2 0.4 81
2019-10-01 06:00:00 18.2 11 Noroeste 22 Noroeste 0 1009.8 -0.2 71
2019-10-01 05:00:00 18.4 10 Noroeste 19 Norte 0 1009.6 -1.1 68
2019-10-01 04:00:00 18.2 5 Noroeste 18 Noroeste 0 1009.8 -0.8 69
2019-10-01 03:00:00 16.7 6 Norte 13 Norte 0 1010 -0.5 77
2019-10-01 02:00:00 16.5 6 Noroeste 10 Noroeste 0 1010.7 0.5 91
2019-10-01 01:00:00 16.6 4 Noroeste 9 Noroeste 0 1010.6 0.5 92
2019-10-01 00:00:00 17.3 5 Norte 8 Noroeste 0 1010.5 0.6 88
2019-09-30 23:00:00 17.7 3 Norte 7 Noroeste 0 1010.2 0.1 87
2019-09-30 22:00:00 18.4 5 Noroeste 7 Noroeste 0 1010.1 0 80
2019-09-30 21:00:00 20.3 3 Noroeste 10 Oeste 0 1009.9 -0.7 78
2019-09-30 20:00:00 21.6 5 Noroeste 15 Oeste 0 1010.1 -1.2 80
2019-09-30 19:00:00 22.8 7 Oeste 18 Oeste 0 1010.1 -1.4 77
2019-09-30 18:00:00 22.9 11 Oeste 18 Noroeste 0 1010.6 -1.6 71
2019-09-30 17:00:00 22.6 12 Oeste 16 Oeste 0 1011.3 -1.3 80
2019-09-30 16:00:00 23.8 6 Sudoeste 13 Sudoeste 0 1011.5 -1.7 75
2019-09-30 15:00:00 22.7 10 Sudoeste 18 Sudoeste 0 1012.2 -1.3 78
2019-09-30 14:00:00 22.7 11 Sur 16 Sudoeste 0 1012.6 -0.6 77
2019-09-30 13:00:00 22.6 9 Sur 17 Sudeste 0 1013.2 0.4 78
2019-09-30 12:00:00 21 8 Sudeste 17 Sudeste 0 1013.5 1.1 86
2019-09-30 11:00:00 19.2 6 Este 12 Este 0 1013.2 1.1 99
2019-09-30 10:00:00 17.2 6 Este 16 Este 0 1012.8 1 99
2019-09-30 09:00:00 15.2 8 Este 16 Este 0 1012.4 0.5 99
2019-09-30 08:00:00 13.9 6 Este 11 Este 0 1012.1 0.1 99
2019-09-30 07:00:00 16.7 4 Nordeste 7 Este 0.1 1011.8 -0.5 98
2019-09-30 06:00:00 17.3 3 Sudeste 9 Sudeste 0 1011.9 -0.8 98
2019-09-30 05:00:00 15.6 3 Sudeste 8 Sur 0 1012 -1 94
2019-09-30 04:00:00 19.6 6 Sur 13 Sur 0 1012.3 -0.8 95
2019-09-30 03:00:00 17.2 6 Sur 12 Sur 0 1012.7 -0.3 99
2019-09-30 02:00:00 15 0 Calma 6 Sur 0 1013 0.2 94
2019-09-30 01:00:00 15.3 3 Sur 5 Sur 0 1013.1 0.6 93
2019-09-30 00:00:00 16.3 3 Nordeste 4 Norte 0 1013 0.8 92
2019-09-29 23:00:00 18 0 Calma 5 Oeste 0 1012.8 0.8 93
2019-09-29 22:00:00 20.2 3 Oeste 12 Oeste 0 1012.5 0.4 93
2019-09-29 21:00:00 20.7 5 Oeste 11 Oeste 0 1012.2 -0.4 92
2019-09-29 20:00:00 21.8 5 Oeste 9 Oeste 0 1012 -0.9 85
2019-09-29 19:00:00 22.9 4 Sudoeste 12 Oeste 0 1012.1 -1.2 79
2019-09-29 18:00:00 23.2 6 Sudoeste 13 Sudoeste 0 1012.6 -1.4 78
2019-09-29 17:00:00 24.1 6 Sudoeste 19 Oeste 0 1012.9 -1.8 71
2019-09-29 16:00:00 24.3 6 Sudoeste 16 Sudoeste 0 1013.3 -1.5 69
2019-09-29 15:00:00 23.7 10 Sudoeste 15 Sudoeste 0 1014 -0.6 70
2019-09-29 14:00:00 23.5 8 Sudoeste 12 Sudoeste 0 1014.7 0.6 70
2019-09-29 13:00:00 24.1 6 Sur 15 Sur 0 1014.8 1.5 71
2019-09-29 12:00:00 23.7 7 Sudeste 14 Sudeste 0 1014.6 1.4 75
2019-09-29 11:00:00 23.3 6 Sudeste 10 Sudeste 0 1014.1 1.5 65
2019-09-29 10:00:00 19.2 6 Este 13 Este 0 1013.3 1.1 77
2019-09-29 09:00:00 13.4 7 Este 12 Nordeste 0 1013.2 1.5 94
2019-09-29 08:00:00 11.7 5 Nordeste 8 Nordeste 0 1012.6 0.3 89
2019-09-29 07:00:00 13.4 5 Norte 8 Noroeste 0 1012.2 -0.4 84
2019-09-29 06:00:00 14.6 6 Nordeste 8 Norte 0 1011.7 -1.2 84
2019-09-29 05:00:00 13.9 4 Norte 5 Noroeste 0 1012.3 -0.2 93
2019-09-29 04:00:00 13.8 0 Calma 3 Noroeste 0 1012.6 -0.1 89
2019-09-29 03:00:00 14 0 Calma 3 Este 0 1012.9 0.3 88
2019-09-29 02:00:00 14.8 0 Calma 7 Sudeste 0 1012.5 0.1 80
2019-09-29 01:00:00 16.8 0 Calma 14 Noroeste 0 1012.7 0.6 67
2019-09-29 00:00:00 16.7 3 Norte 6 Norte 0 1012.6 0.5 74
2019-09-28 23:00:00 18.6 4 Norte 12 Norte 0 1012.4 0.2 72
2019-09-28 22:00:00 19 6 Norte 10 Noroeste 0 1012.1 -0.2 76
2019-09-28 21:00:00 20 6 Noroeste 10 Noroeste 0 1012.1 -0.1 80
2019-09-28 20:00:00 21.5 5 Oeste 15 Oeste 0 1012.2 -0.3 81
2019-09-28 19:00:00 22.4 10 Oeste 18 Oeste 0 1012.3 -0.5 80
2019-09-28 18:00:00 23.9 8 Oeste 13 Oeste 0 1012.2 -1.1 70
2019-09-28 17:00:00 24.1 6 Sudoeste 13 Sudoeste 0 1012.5 -1.7 70
2019-09-28 16:00:00 24.5 6 Sudoeste 13 Sudoeste 0 1012.8 -2 64
2019-09-28 15:00:00 24 7 Sudoeste 12 Sudoeste 0 1013.3 -1.6 64
2019-09-28 14:00:00 23.5 7 Sudoeste 11 Sudoeste 0 1014.2 -0.5 70
2019-09-28 13:00:00 23 6 Sudoeste 10 Sudoeste 0 1014.8 0.7 69
2019-09-28 12:00:00 22.3 6 Sudoeste 9 Sudoeste 0 1014.9 1.2 70
2019-09-28 11:00:00 23.6 5 Este 13 Este 0 1014.7 1.8 67
2019-09-28 10:00:00 19.7 7 Nordeste 13 Nordeste 0 1014.1 1.5 70
2019-09-28 09:00:00 15.8 3 Norte 13 Norte 0 1013.7 1.2 72
2019-09-28 08:00:00 16.6 8 Nordeste 14 Nordeste 0 1012.9 0.4 69
2019-09-28 07:00:00 17.1 11 Norte 18 Nordeste 0 1012.6 -0.1 59
2019-09-28 06:00:00 16.2 10 Norte 15 Norte 0 1012.5 0 64
2019-09-28 05:00:00 15.7 8 Nordeste 11 Norte 0 1012.5 -0.4 72
2019-09-28 04:00:00 18.3 2 Este 21 Nordeste 0 1012.7 -0.6 51
2019-09-28 03:00:00 19.6 12 Norte 20 Norte 0 1012.5 -1 50
2019-09-28 02:00:00 15.2 4 Norte 6 Norte 0 1012.9 -0.6 94
2019-09-28 01:00:00 15.5 0 Calma 4 Oeste 0 1013.3 0.1 91
2019-09-28 00:00:00 16.5 0 Calma 4 Sudoeste 0 1013.5 0.9 92
2019-09-27 23:00:00 17.8 0 Calma 6 Oeste 0 1013.5 0.9 87
2019-09-27 22:00:00 20.2 4 Oeste 9 Oeste 0 1013.2 0.6 86
2019-09-27 21:00:00 20.6 6 Oeste 11 Oeste 0 1012.6 0 84
2019-09-27 20:00:00 21.5 6 Oeste 15 Oeste 0 1012.6 -0.3 82
2019-09-27 19:00:00 21.9 12 Oeste 19 Oeste 0 1012.6 -0.9 80
2019-09-27 18:00:00 22.5 13 Oeste 17 Oeste 0 1012.6 -1.5 73
2019-09-27 17:00:00 23.3 9 Sudoeste 14 Sudoeste 0 1012.9 -1.9 66
2019-09-27 16:00:00 22.9 10 Sudoeste 13 Sudoeste 0 1013.5 -1.4 64
2019-09-27 15:00:00 22.8 9 Sudoeste 13 Sudoeste 0 1014.1 -0.8 67
2019-09-27 14:00:00 22.4 10 Sudoeste 13 Sur 0 1014.8 0.1 71
2019-09-27 13:00:00 23.8 6 Sudoeste 14 Sur 0 1014.9 0.8 69
2019-09-27 12:00:00 24.1 6 Sur 14 Sur 0 1014.9 1 64
2019-09-27 11:00:00 24 5 Este 12 Nordeste 0 1014.7 1.3 49
2019-09-27 10:00:00 20.6 7 Nordeste 13 Nordeste 0 1014.1 0.9 56
2019-09-27 09:00:00 16.4 6 Nordeste 14 Norte 0 1013.9 1 69
2019-09-27 08:00:00 14.7 6 Norte 12 Nordeste 0 1013.4 0.6 77
2019-09-27 07:00:00 14.6 3 Nordeste 7 Norte 0 1013.2 0 77
2019-09-27 06:00:00 17 5 Norte 11 Norte 0 1012.9 -0.6 68
2019-09-27 05:00:00 17.1 4 Noroeste 12 Norte 0 1012.8 -0.5 68
2019-09-27 04:00:00 19.1 9 Norte 18 Norte 0 1013.2 -0.4 63
2019-09-27 03:00:00 15.7 3 Noroeste 8 Oeste 0 1013.5 -0.1 83
2019-09-27 02:00:00 16.8 3 Noroeste 8 Noroeste 0 1013.3 -0.3 83
2019-09-27 01:00:00 17.2 6 Noroeste 10 Noroeste 0 1013.6 0.4 78
2019-09-27 00:00:00 17.7 4 Norte 7 Noroeste 0 1013.6 0.9 75
2019-09-26 23:00:00 18.2 5 Noroeste 8 Noroeste 0 1013.6 1 80
2019-09-26 22:00:00 19.6 3 Noroeste 11 Oeste 0 1013.2 0.8 82
2019-09-26 21:00:00 20.5 6 Oeste 14 Noroeste 0 1012.7 0.4 82
2019-09-26 20:00:00 21.7 7 Oeste 19 Noroeste 0 1012.6 0 77
2019-09-26 19:00:00 23.3 8 Oeste 16 Oeste 0 1012.4 -0.6 70
2019-09-26 18:00:00 23.8 11 Oeste 18 Oeste 0 1012.3 -1.2 60
2019-09-26 17:00:00 24.2 10 Oeste 17 Sudoeste 0 1012.6 -1.6 56
2019-09-26 16:00:00 24.8 7 Oeste 15 Sudoeste 0 1013 -1.7 56
2019-09-26 15:00:00 24.6 5 Sudoeste 14 Oeste 0 1013.5 -1.4 62
2019-09-26 14:00:00 23.6 6 Sudoeste 13 Sudoeste 0 1014.2 -0.3 65
2019-09-26 13:00:00 24 6 Sudoeste 13 Oeste 0 1014.7 0.8 58
2019-09-26 12:00:00 22.9 5 Sudoeste 9 Sudoeste 0 1014.9 1.6 55
2019-09-26 11:00:00 21.7 5 Sudoeste 9 Nordeste 0 1014.5 1.9 56
2019-09-26 10:00:00 20.7 6 Nordeste 14 Norte 0 1013.9 1.6 56
2019-09-26 09:00:00 16.5 6 Norte 14 Norte 0 1013.3 0.9 70
2019-09-26 08:00:00 16.2 6 Norte 19 Norte 0 1012.6 0.4 70
2019-09-26 07:00:00 17.2 13 Norte 23 Norte 0 1012.3 0.1 66
2019-09-26 06:00:00 17.7 10 Norte 20 Norte 0 1012.4 0.3 64
2019-09-26 05:00:00 18.3 7 Norte 19 Norte 0 1012.2 0 61
2019-09-26 04:00:00 19 9 Norte 22 Norte 0 1012.2 -0.1 58
2019-09-26 03:00:00 19.9 10 Norte 20 Norte 0 1012.1 -0.2 56
2019-09-26 02:00:00 20.7 10 Norte 20 Noroeste 0 1012.2 0.1 52
2019-09-26 01:00:00 20.9 8 Norte 15 Norte 0 1012.3 0.3 49
2019-09-26 00:00:00 21.8 8 Norte 19 Noroeste 0 1012.3 0.6 46
2019-09-25 23:00:00 19.3 6 Norte 11 Noroeste 0 1012.1 0.4 68
2019-09-25 22:00:00 20.4 5 Noroeste 20 Oeste 0 1012 0.2 79
2019-09-25 21:00:00 20.8 8 Oeste 18 Oeste 0 1011.7 -0.1 79
2019-09-25 20:00:00 21.3 13 Oeste 19 Oeste 0 1011.7 -0.4 79
2019-09-25 19:00:00 22.3 12 Oeste 28 Oeste 0 1011.8 -0.5 72
2019-09-25 18:00:00 22.7 15 Oeste 28 Oeste 0 1011.8 -1.2 69
2019-09-25 17:00:00 24.4 10 Oeste 25 Oeste 0 1012.1 -1.9 64
2019-09-25 16:00:00 25.6 6 Oeste 22 Oeste 0 1012.3 -2.3 57
2019-09-25 15:00:00 24.7 10 Sudoeste 26 Sudoeste 0 1013 -1.6 56
2019-09-25 14:00:00 24.6 8 Oeste 23 Oeste 0 1014 -0.9 56
2019-09-25 13:00:00 24.4 8 Oeste 20 Oeste 0 1014.6 0.3 52
2019-09-25 12:00:00 23.8 8 Noroeste 22 Noroeste 0 1014.6 0.6 50
2019-09-25 11:00:00 21.7 10 Noroeste 21 Noroeste 0 1014.9 1.2 61
2019-09-25 10:00:00 19.6 9 Noroeste 20 Norte 0 1014.3 0.8 74
2019-09-25 09:00:00 16.7 9 Noroeste 15 Noroeste 0 1014 0.7 89
2019-09-25 08:00:00 16.2 5 Norte 10 Norte 0 1013.7 0.6 89
2019-09-25 07:00:00 17.5 4 Noroeste 13 Noroeste 0 1013.5 0.1 84
2019-09-25 06:00:00 19.2 5 Norte 18 Norte 0 1013.3 0 81
2019-09-25 05:00:00 20.4 8 Norte 21 Norte 0 1013.1 -0.4 79
2019-09-25 04:00:00 21.4 12 Norte 28 Norte 0 1013.4 -0.3 77
2019-09-25 03:00:00 21.9 13 Norte 28 Noroeste 0 1013.3 -0.6 76
2019-09-25 02:00:00 22.6 11 Norte 23 Norte 0 1013.5 -0.2 77
2019-09-25 01:00:00 23.5 12 Noroeste 26 Noroeste 0 1013.7 0.2 73
2019-09-25 00:00:00 24.1 12 Norte 25 Norte 0 1013.9 0.5 70
2019-09-24 23:00:00 21.5 6 Noroeste 14 Noroeste 0 1013.7 0.5 69
2019-09-24 22:00:00 21.7 6 Oeste 17 Oeste 0 1013.5 0.4 72
2019-09-24 21:00:00 21.7 7 Oeste 17 Oeste 0 1013.4 0.2 77
2019-09-24 20:00:00 22.5 10 Oeste 18 Oeste 0 1013.2 -0.3 71
2019-09-24 19:00:00 23.1 12 Oeste 21 Oeste 0 1013.1 -1.1 69
2019-09-24 18:00:00 24.1 9 Oeste 23 Noroeste 0 1013.2 -1.6 68
2019-09-24 17:00:00 26.2 6 Oeste 18 Oeste 0 1013.5 -1.9 62
2019-09-24 16:00:00 26.3 6 Oeste 16 Oeste 0 1014.2 -1.9 60
2019-09-24 15:00:00 25.4 7 Sudoeste 15 Sudoeste 0 1014.8 -1.4 66
2019-09-24 14:00:00 25.8 6 Sudoeste 15 Oeste 0 1015.4 -0.9 61
2019-09-24 13:00:00 25.7 5 Sudoeste 15 Oeste 0 1016.1 0.6 57
2019-09-24 12:00:00 24.4 5 Sudoeste 11 Sudoeste 0 1016.2 1.1 53
2019-09-24 11:00:00 24.4 0 Calma 11 Noroeste 0 1016.3 1.6 44
2019-09-24 10:00:00 20.9 7 Norte 13 Norte 0 1015.5 1.1 57
2019-09-24 09:00:00 16.6 8 Norte 19 Norte 0 1015.1 1.1 78
2019-09-24 08:00:00 16.1 14 Norte 22 Nordeste 0 1014.7 0.7 80
2019-09-24 07:00:00 16.5 14 Norte 20 Norte 0 1014.4 0.1 78
2019-09-24 06:00:00 17.1 13 Norte 22 Norte 0 1014 -0.5 75
2019-09-24 05:00:00 17.7 13 Norte 25 Norte 0 1014 -0.5 73
2019-09-24 04:00:00 18.3 13 Norte 26 Norte 0 1014.3 -0.4 70
2019-09-24 03:00:00 18.8 13 Norte 24 Norte 0 1014.5 -0.4 65
2019-09-24 02:00:00 17.9 8 Norte 14 Norte 0 1014.5 -0.6 64
2019-09-24 01:00:00 17.8 3 Noroeste 9 Noroeste 0 1014.7 -0.2 79
2019-09-24 00:00:00 19.3 5 Noroeste 15 Oeste 0 1014.9 0.5 78
2019-09-23 23:00:00 20.9 8 Oeste 17 Noroeste 0 1015.1 0.9 72
2019-09-23 22:00:00 20.8 6 Noroeste 19 Noroeste 0 1014.9 0.7 70
2019-09-23 21:00:00 20.8 9 Noroeste 23 Oeste 0 1014.4 0.1 67
2019-09-23 20:00:00 21.9 11 Noroeste 25 Oeste 0 1014.2 -0.3 63
2019-09-23 19:00:00 23.5 10 Oeste 22 Oeste 0 1014.2 -0.7 60
2019-09-23 18:00:00 23.8 14 Oeste 24 Oeste 0 1014.3 -1.2 60
2019-09-23 17:00:00 24.2 9 Oeste 22 Oeste 0 1014.5 -1.4 57
2019-09-23 16:00:00 25.7 8 Sudoeste 21 Oeste 0 1014.9 -1.3 53
2019-09-23 15:00:00 22.9 13 Oeste 20 Oeste 0 1015.5 -0.8 61
2019-09-23 14:00:00 22.8 10 Oeste 17 Oeste 0 1015.9 -0.3 62
2019-09-23 13:00:00 22.6 7 Oeste 15 Sudoeste 0 1016.2 0.5 61
2019-09-23 12:00:00 21.9 9 Sudoeste 13 Sudoeste 0 1016.3 0.9 66
2019-09-23 11:00:00 22.8 4 Sudoeste 13 Nordeste 0 1016.2 1.3 57
2019-09-23 10:00:00 20.1 9 Nordeste 15 Nordeste 0 1015.7 1.3 61
2019-09-23 09:00:00 15.3 9 Nordeste 16 Norte 0 1015.4 1.5 80
2019-09-23 08:00:00 14.9 10 Norte 19 Norte 0 1014.9 0.9 81
2019-09-23 07:00:00 15.3 12 Norte 19 Norte 0 1014.4 0.5 79
2019-09-23 06:00:00 15.5 11 Norte 20 Norte 0 1013.9 -0.2 78
2019-09-23 05:00:00 16.2 12 Norte 19 Norte 0 1014 -0.2 74
2019-09-23 04:00:00 16.4 12 Norte 21 Norte 0 1013.9 -0.4 72
2019-09-23 03:00:00 16.8 11 Norte 20 Norte 0 1014.1 -0.1 71
2019-09-23 02:00:00 17.5 10 Norte 21 Norte 0 1014.2 -0.1 71
2019-09-23 01:00:00 18.6 9 Norte 20 Norte 0 1014.3 0.6 71
2019-09-23 00:00:00 19.4 5 Norte 9 Noroeste 0 1014.2 1 86
2019-09-22 23:00:00 20.8 5 Oeste 14 Oeste 0 1014.3 1.3 84
2019-09-22 22:00:00 21.2 7 Oeste 18 Oeste 0 1013.7 1.2 83
2019-09-22 21:00:00 21.1 8 Oeste 22 Oeste 0 1013.2 0.9 79
2019-09-22 20:00:00 21.4 11 Oeste 24 Oeste 0 1013 0.5 80
2019-09-22 19:00:00 21.8 13 Oeste 27 Oeste 0 1012.5 -0.1 79
2019-09-22 18:00:00 22.2 14 Oeste 27 Oeste 0 1012.3 -0.1 77
2019-09-22 17:00:00 22.4 14 Oeste 30 Oeste 0 1012.5 -0.1 73
2019-09-22 16:00:00 22.6 12 Oeste 28 Noroeste 0 1012.6 0.2 73
2019-09-22 15:00:00 25.4 14 Noroeste 33 Noroeste 0 1012.4 -0.2 50
2019-09-22 14:00:00 24.4 9 Noroeste 31 Noroeste 0 1012.6 0.5 54
2019-09-22 13:00:00 22.8 13 Noroeste 28 Norte 0 1012.4 0.8 59
2019-09-22 12:00:00 21.5 13 Noroeste 29 Noroeste 0 1012.6 1.7 61
2019-09-22 11:00:00 20.1 11 Noroeste 21 Norte 0 1012.1 2.2 70
2019-09-22 10:00:00 17.4 13 Norte 23 Noroeste 0 1011.6 2.2 83
2019-09-22 09:00:00 15.7 9 Noroeste 19 Norte 0 1010.9 2.1 92
2019-09-22 08:00:00 17.1 9 Noroeste 17 Noroeste 0 1009.9 1.1 92
2019-09-22 07:00:00 17.7 7 Noroeste 17 Noroeste 0.1 1009.4 0.6 94
2019-09-22 06:00:00 19.1 5 Noroeste 15 Noroeste 0.3 1008.8 -0.3 96
2019-09-22 05:00:00 20 8 Noroeste 31 Sudoeste 1.4 1008.8 -0.5 95
2019-09-22 04:00:00 21.8 16 Sudoeste 31 Sudoeste 0 1008.8 -0.5 93
2019-09-22 03:00:00 21.7 14 Sur 25 Sur 0 1009.1 -0.5 93
2019-09-22 02:00:00 21.8 10 Sudoeste 23 Sur 0 1009.3 -0.4 93
2019-09-22 01:00:00 21.7 11 Sudoeste 22 Sur 0 1009.3 -0.1 92
2019-09-22 00:00:00 21.6 9 Sudoeste 24 Sudoeste 0 1009.6 0.7 93
2019-09-21 23:00:00 21.8 18 Sudoeste 25 Sudoeste 0 1009.7 0.8 92
2019-09-21 22:00:00 21.6 16 Sudoeste 23 Sudoeste 0.3 1009.4 0.7 91
2019-09-21 21:00:00 21.9 19 Sudoeste 25 Sudoeste 0 1008.9 0.1 88
2019-09-21 20:00:00 21.8 13 Sudoeste 23 Sudoeste 0.1 1008.9 -0.2 88
2019-09-21 19:00:00 22 11 Sudoeste 23 Sudoeste 0 1008.7 -0.6 86
2019-09-21 18:00:00 22.5 14 Sur 24 Sur 0 1008.8 -0.9 83
2019-09-21 17:00:00 22.3 12 Sur 27 Sudoeste 0 1009.1 -0.7 84
2019-09-21 16:00:00 22.8 13 Sudoeste 25 Sur 0 1009.3 -0.8 79
2019-09-21 15:00:00 22.2 15 Sudoeste 30 Sudoeste 0 1009.7 -0.3 83
2019-09-21 14:00:00 23.4 14 Sur 22 Sudoeste 0 1009.8 -0.1 75
2019-09-21 13:00:00 22.3 14 Sur 23 Sur 0 1010.1 0.8 79
2019-09-21 12:00:00 22.1 16 Sur 23 Sudoeste 0 1010 1.1 80
2019-09-21 11:00:00 21.7 14 Sur 22 Sur 0 1009.9 1.5 83
2019-09-21 10:00:00 20.9 8 Sur 16 Sur 0 1009.3 0.9 88
2019-09-21 09:00:00 17.8 4 Este 11 Este 0 1008.9 0.4 90
2019-09-21 08:00:00 18.3 5 Este 11 Sur 0 1008.4 0 88
2019-09-21 07:00:00 20.8 6 Sudoeste 18 Sudoeste 0 1008.4 -0.5 85
2019-09-21 06:00:00 20.4 8 Sudoeste 13 Sudoeste 0 1008.5 -0.8 85
2019-09-21 05:00:00 20.4 9 Sudoeste 16 Sudoeste 0 1008.4 -1 85
2019-09-21 04:00:00 20.5 11 Sudoeste 19 Sudoeste 0 1008.9 -0.6 84
2019-09-21 03:00:00 20.4 9 Sudoeste 20 Sudoeste 0 1009.3 -0.4 80
2019-09-21 02:00:00 20.4 10 Sudoeste 17 Sudoeste 0 1009.4 -0.3 81
2019-09-21 01:00:00 20.5 9 Sudoeste 13 Sudoeste 0 1009.5 0.1 82
2019-09-21 00:00:00 20.4 7 Sudoeste 12 Sudoeste 0 1009.7 0.6 84
2019-09-20 23:00:00 20.4 3 Oeste 11 Oeste 0 1009.7 0.5 82
2019-09-20 22:00:00 20.4 5 Oeste 25 Oeste 0 1009.4 0.4 81
2019-09-20 21:00:00 20.6 14 Oeste 27 Oeste 0 1009.1 0.5 82
2019-09-20 20:00:00 21.3 10 Sudoeste 23 Oeste 0.2 1009.2 0 81
2019-09-20 19:00:00 21.7 14 Sudoeste 23 Sudoeste 0 1009 -0.6 81
2019-09-20 18:00:00 23 5 Sudoeste 16 Oeste 0 1008.6 -1.4 72
2019-09-20 17:00:00 24.3 5 Sudoeste 13 Oeste 0 1009.2 -0.8 67
2019-09-20 16:00:00 24.2 6 Sudoeste 17 Sudoeste 0 1009.6 -0.6 68
2019-09-20 15:00:00 23.9 6 Sudoeste 12 Oeste 0 1010 -0.5 72
2019-09-20 14:00:00 23.4 8 Sudoeste 17 Sudeste 0 1010 -0.6 73
2019-09-20 13:00:00 23.2 8 Sur 17 Sur 0 1010.2 0.1 75
2019-09-20 12:00:00 22.3 8 Sur 17 Sur 0 1010.5 0.9 81
2019-09-20 11:00:00 21.5 4 Sur 8 Sudeste 0 1010.6 1.3 83
2019-09-20 10:00:00 18.8 0 Calma 10 Este 0 1010.1 1.1 90
2019-09-20 09:00:00 16.4 6 Nordeste 11 Nordeste 0 1009.6 0.4 93
2019-09-20 08:00:00 16 7 Nordeste 12 Nordeste 0 1009.3 -0.2 90
2019-09-20 07:00:00 16.5 5 Nordeste 8 Nordeste 0 1009 -0.9 86
2019-09-20 06:00:00 16.3 6 Nordeste 10 Nordeste 0 1009.2 -0.8 90
2019-09-20 05:00:00 15.5 0 Calma 4 Este 0 1009.5 -0.7 92
2019-09-20 04:00:00 15.6 0 Calma 3 Sudeste 0 1009.9 -0.4 93
2019-09-20 03:00:00 15.9 0 Calma 7 Nordeste 0 1010 -0.8 91
2019-09-20 02:00:00 17 2 Norte 6 Noroeste 0 1010.2 -0.5 90
2019-09-20 01:00:00 17.6 0 Calma 5 Oeste 0 1010.3 0 89
2019-09-20 00:00:00 19.7 3 Oeste 9 Oeste 0 1010.8 1 83
2019-09-19 23:00:00 21.3 2 Oeste 12 Oeste 0 1010.7 0.8 81
2019-09-19 22:00:00 21.5 6 Oeste 13 Sudoeste 0 1010.3 0.1 78
2019-09-19 21:00:00 21.5 6 Sudoeste 21 Oeste 0 1009.8 -0.2 78
2019-09-19 20:00:00 22.2 10 Oeste 22 Oeste 0 1009.9 -0.3 76
2019-09-19 19:00:00 23.5 9 Sudoeste 21 Oeste 0 1010.2 -0.2 71
2019-09-19 18:00:00 24.4 7 Sudoeste 23 Sudoeste 0 1010 -1.4 64
2019-09-19 17:00:00 24.1 13 Oeste 24 Oeste 0 1010.2 -1.7 67
2019-09-19 16:00:00 23.9 12 Oeste 27 Oeste 0 1010.4 -1.9 67
2019-09-19 15:00:00 23.9 8 Sudoeste 18 Oeste 0 1011.4 -1.2 70
2019-09-19 14:00:00 23 9 Sudoeste 17 Sudoeste 0 1011.9 -0.4 74
2019-09-19 13:00:00 21.2 8 Sudoeste 14 Sudoeste 0 1012.3 0.3 78
2019-09-19 12:00:00 20.3 6 Sudoeste 12 Sudoeste 0 1012.6 1.3 80
2019-09-19 11:00:00 18.7 4 Nordeste 8 Nordeste 0 1012.3 1.1 87
2019-09-19 10:00:00 16.1 5 Este 16 Nordeste 0 1012 1 99
2019-09-19 09:00:00 14.4 11 Nordeste 14 Nordeste 0 1011.3 0.4 98
2019-09-19 08:00:00 14 4 Nordeste 9 Norte 0 1011.2 0.3 91
2019-09-19 07:00:00 14.6 6 Norte 10 Nordeste 0 1011 0.1 88
2019-09-19 06:00:00 14.2 0 Calma 4 Sudeste 0 1010.9 -0.6 84
2019-09-19 05:00:00 16.4 0 Calma 18 Nordeste 0 1010.9 -0.4 79
2019-09-19 04:00:00 16.9 9 Norte 15 Norte 0 1010.9 -0.7 79
2019-09-19 03:00:00 17.7 5 Norte 15 Norte 0 1011.5 -0.1 79
2019-09-19 02:00:00 19.2 8 Norte 17 Norte 0 1011.3 0 78
2019-09-19 01:00:00 20.4 3 Norte 12 Noroeste 0 1011.6 0.1 88
2019-09-19 00:00:00 21.5 7 Oeste 19 Oeste 0 1011.6 0.4 85